Time;durP1;ratioP1;P1;durP2;ratioP2;P2;SDS_P1;SDS_P2;PMS_P1;PMS_P2;Temp;Humidity;BMP_temperature;BMP_pressure;BME280_temperature;BME280_humidity;BME280_pressure;Samples;Min_cycle;Max_cycle;Signal;HPM_P1;HPM_P2
2022/09/09 00:01:08;;;;;;;2.13;1.42;;;;;;;;;;4916526;28;20386;-47
2022/09/09 00:03:53;;;;;;;3.60;1.58;;;;;;;;;;4915937;28;20069;-39
2022/09/09 00:06:27;;;;;;;4.47;1.80;;;;;;;;;;4915450;28;20092;-44
2022/09/09 00:09:16;;;;;;;6.78;1.55;;;;;;;;;;4914331;28;20512;-46
2022/09/09 00:11:53;;;;;;;2.03;1.17;;;;;;;;;;5031547;28;20037;-45
2022/09/09 00:14:41;;;;;;;2.10;1.20;;;;;;;;;;5032478;28;20071;-45
2022/09/09 00:17:39;;;;;;;1.92;1.17;;;;;;;;;;5034190;28;20044;-45
2022/09/09 00:20:29;;;;;;;3.17;1.42;;;;;;;;;;5034506;28;20489;-44
2022/09/09 00:23:12;;;;;;;3.80;1.42;;;;;;;;;;5033497;28;20079;-41
2022/09/09 00:26:22;;;;;;;3.78;1.35;;;;;;;;;;5031782;28;20102;-44
2022/09/09 00:28:59;;;;;;;5.65;1.80;;;;;;;;;;4991324;28;20084;-44
2022/09/09 00:31:32;;;;;;;1.90;1.35;;;;;;;;;;4990955;28;20580;-43
2022/09/09 00:34:17;;;;;;;4.20;1.35;;;;;;;;;;4989829;28;20499;-44
2022/09/09 00:36:45;;;;;;;2.58;1.30;;;;;;;;;;4993073;28;20037;-45
2022/09/09 00:39:35;;;;;;;1.75;1.25;;;;;;;;;;4990326;28;20053;-44
2022/09/09 00:42:14;;;;;;;2.63;1.40;;;;;;;;;;4990786;28;20046;-43
2022/09/09 00:44:53;;;;;;;4.32;1.20;;;;;;;;;;4990663;28;20053;-49
2022/09/09 00:47:45;;;;;;;2.28;1.20;;;;;;;;;;4992301;28;20148;-43
2022/09/09 00:50:35;;;;;;;4.63;2.15;;;;;;;;;;4991727;28;20573;-44
2022/09/09 00:53:19;;;;;;;5.57;1.60;;;;;;;;;;4990945;28;20049;-43
2022/09/09 00:56:05;;;;;;;3.70;1.45;;;;;;;;;;4990467;28;20108;-44
2022/09/09 00:58:31;;;;;;;2.92;1.40;;;;;;;;;;4989158;28;20182;-44
2022/09/09 01:01:08;;;;;;;2.88;1.45;;;;;;;;;;4991466;28;20474;-45
2022/09/09 01:03:38;;;;;;;3.30;1.42;;;;;;;;;;4988956;28;20450;-44
2022/09/09 01:06:18;;;;;;;4.13;1.33;;;;;;;;;;5023010;28;20809;-45
2022/09/09 01:09:15;;;;;;;1.92;1.35;;;;;;;;;;5033483;28;20041;-45
2022/09/09 01:11:55;;;;;;;2.30;1.30;;;;;;;;;;5033257;28;20041;-44
2022/09/09 01:14:36;;;;;;;3.50;1.45;;;;;;;;;;5030138;28;20045;-43
2022/09/09 01:17:28;;;;;;;4.63;1.35;;;;;;;;;;5033970;28;20053;-44
2022/09/09 01:20:12;;;;;;;2.45;1.42;;;;;;;;;;5029936;28;20041;-44
2022/09/09 01:22:59;;;;;;;10.25;1.63;;;;;;;;;;5033522;28;20516;-44
2022/09/09 01:25:48;;;;;;;5.40;1.42;;;;;;;;;;5033606;28;20053;-45
2022/09/09 01:28:19;;;;;;;6.25;1.48;;;;;;;;;;5032218;28;20056;-44
2022/09/09 01:30:45;;;;;;;2.97;1.60;;;;;;;;;;5033363;28;20040;-44
2022/09/09 01:33:15;;;;;;;2.50;1.33;;;;;;;;;;5035497;28;20120;-45
2022/09/09 01:36:08;;;;;;;3.47;1.38;;;;;;;;;;5038467;28;20045;-43
2022/09/09 01:38:35;;;;;;;2.00;1.38;;;;;;;;;;5031336;28;20045;-47
2022/09/09 01:41:01;;;;;;;5.35;1.50;;;;;;;;;;5037518;28;20049;-44
2022/09/09 01:43:27;;;;;;;1.85;1.23;;;;;;;;;;5037337;28;20409;-44
2022/09/09 01:45:55;;;;;;;8.60;1.70;;;;;;;;;;5038672;28;20416;-44
2022/09/09 01:48:24;;;;;;;5.90;1.52;;;;;;;;;;5034208;28;20052;-44
2022/09/09 01:50:51;;;;;;;3.75;1.35;;;;;;;;;;5037189;28;20067;-46
2022/09/09 01:53:19;;;;;;;4.72;1.35;;;;;;;;;;5034912;28;20037;-43
2022/09/09 01:56:34;;;;;;;5.53;1.50;;;;;;;;;;5035961;28;20048;-46
2022/09/09 01:59:08;;;;;;;3.05;1.67;;;;;;;;;;5035416;28;20052;-47
2022/09/09 02:01:43;;;;;;;2.45;1.20;;;;;;;;;;5034531;28;20088;-44
2022/09/09 02:04:36;;;;;;;5.47;1.52;;;;;;;;;;5034408;28;20040;-44
2022/09/09 02:07:06;;;;;;;2.35;1.17;;;;;;;;;;5036073;28;20128;-44
2022/09/09 02:09:32;;;;;;;5.05;1.40;;;;;;;;;;5035533;28;20592;-44
2022/09/09 02:12:20;;;;;;;4.55;1.73;;;;;;;;;;5035384;28;20120;-44
2022/09/09 02:14:58;;;;;;;5.32;1.40;;;;;;;;;;5033068;28;20444;-44
2022/09/09 02:17:30;;;;;;;3.05;1.30;;;;;;;;;;5037154;28;20041;-44
2022/09/09 02:20:07;;;;;;;2.35;1.25;;;;;;;;;;5031603;28;20041;-45
2022/09/09 02:22:34;;;;;;;1.58;1.45;;;;;;;;;;5035202;28;20490;-44
2022/09/09 02:25:01;;;;;;;1.55;1.20;;;;;;;;;;5037108;28;20072;-45
2022/09/09 02:27:27;;;;;;;3.50;1.45;;;;;;;;;;5034312;28;20124;-43
2022/09/09 02:29:56;;;;;;;4.10;1.20;;;;;;;;;;5019471;28;20076;-42
2022/09/09 02:32:24;;;;;;;5.35;1.52;;;;;;;;;;5036734;28;20173;-42
2022/09/09 02:35:02;;;;;;;5.88;1.30;;;;;;;;;;5035705;28;20045;-43
2022/09/09 02:37:35;;;;;;;8.38;1.35;;;;;;;;;;5035780;28;20040;-47
2022/09/09 02:40:06;;;;;;;4.25;1.27;;;;;;;;;;5035652;28;20037;-44
2022/09/09 02:42:32;;;;;;;5.72;1.63;;;;;;;;;;5034310;28;20087;-43
2022/09/09 02:44:58;;;;;;;3.35;1.33;;;;;;;;;;5032628;28;20084;-42
2022/09/09 02:47:32;;;;;;;3.78;1.67;;;;;;;;;;5036003;28;20041;-44
2022/09/09 02:50:33;;;;;;;4.45;1.40;;;;;;;;;;5036109;28;20044;-43
2022/09/09 02:53:16;;;;;;;4.65;1.77;;;;;;;;;;5032922;28;20509;-46
2022/09/09 02:55:48;;;;;;;2.72;1.10;;;;;;;;;;5032812;28;20081;-42
2022/09/09 02:58:16;;;;;;;;;;;;;;;;;;5033431;28;20075;-44
2022/09/09 03:00:44;;;;;;;3.92;1.60;;;;;;;;;;5031932;28;20019;-41
2022/09/09 03:03:09;;;;;;;4.85;1.70;;;;;;;;;;5034375;28;20053;-44
2022/09/09 03:05:36;;;;;;;5.22;1.55;;;;;;;;;;5035513;28;21733;-44
2022/09/09 03:08:03;;;;;;;6.75;1.85;;;;;;;;;;5033033;28;20186;-43
2022/09/09 03:10:29;;;;;;;1.40;1.30;;;;;;;;;;5037099;28;20048;-44
2022/09/09 03:12:55;;;;;;;4.90;1.35;;;;;;;;;;5036919;28;20041;-44
2022/09/09 03:15:21;;;;;;;3.78;2.00;;;;;;;;;;5035491;28;20094;-44
2022/09/09 03:17:47;;;;;;;2.75;1.40;;;;;;;;;;5035390;28;20075;-44
2022/09/09 03:20:12;;;;;;;2.63;1.20;;;;;;;;;;5035066;28;20065;-46
2022/09/09 03:22:38;;;;;;;1.50;1.40;;;;;;;;;;5036349;28;20477;-44
2022/09/09 03:25:05;;;;;;;5.25;1.48;;;;;;;;;;5034917;28;20041;-44
2022/09/09 03:27:31;;;;;;;4.18;1.35;;;;;;;;;;5035801;28;20730;-45
2022/09/09 03:29:57;;;;;;;4.07;1.58;;;;;;;;;;5035486;28;20040;-44
2022/09/09 03:32:25;;;;;;;5.00;1.95;;;;;;;;;;5035388;28;20041;-43
2022/09/09 03:34:52;;;;;;;3.03;1.63;;;;;;;;;;5035733;28;20059;-44
2022/09/09 03:37:18;;;;;;;8.77;1.67;;;;;;;;;;5031056;28;20371;-44
2022/09/09 03:39:44;;;;;;;3.15;1.20;;;;;;;;;;5035262;28;20067;-45
2022/09/09 03:42:14;;;;;;;6.60;1.50;;;;;;;;;;5035729;28;20044;-45
2022/09/09 03:44:41;;;;;;;5.10;1.65;;;;;;;;;;5034407;28;20112;-42
2022/09/09 03:47:07;;;;;;;4.97;1.60;;;;;;;;;;5035599;28;22303;-44
2022/09/09 03:49:33;;;;;;;2.10;1.20;;;;;;;;;;5034352;28;20037;-44
2022/09/09 03:51:59;;;;;;;4.13;1.17;;;;;;;;;;5034886;28;20469;-41
2022/09/09 03:54:25;;;;;;;3.25;1.55;;;;;;;;;;5036228;28;20037;-46
2022/09/09 03:56:51;;;;;;;1.98;1.20;;;;;;;;;;5034820;28;20052;-44
2022/09/09 03:59:17;;;;;;;2.47;1.33;;;;;;;;;;5035794;28;20055;-44
2022/09/09 04:01:43;;;;;;;1.13;0.98;;;;;;;;;;5033326;28;20045;-45
2022/09/09 04:04:09;;;;;;;1.92;0.95;;;;;;;;;;5033743;28;20131;-45
2022/09/09 04:06:35;;;;;;;1.58;1.00;;;;;;;;;;5035695;28;20041;-44
2022/09/09 04:09:02;;;;;;;2.35;1.58;;;;;;;;;;5034144;28;20045;-44
2022/09/09 04:11:28;;;;;;;2.50;1.30;;;;;;;;;;5034456;28;20061;-40
2022/09/09 04:13:54;;;;;;;6.45;1.10;;;;;;;;;;5032999;28;20033;-46
2022/09/09 04:16:20;;;;;;;2.25;1.35;;;;;;;;;;5033313;28;20060;-44
2022/09/09 04:18:46;;;;;;;3.55;1.10;;;;;;;;;;5034537;28;20122;-44
2022/09/09 04:21:12;;;;;;;3.58;1.40;;;;;;;;;;5033505;28;20044;-44
2022/09/09 04:23:38;;;;;;;2.92;1.20;;;;;;;;;;5033327;28;20049;-44
2022/09/09 04:26:05;;;;;;;4.85;1.00;;;;;;;;;;5030923;28;20124;-49
2022/09/09 04:28:33;;;;;;;2.17;1.33;;;;;;;;;;5035037;28;20512;-46
2022/09/09 04:31:12;;;;;;;2.38;1.20;;;;;;;;;;5034193;28;20053;-43
2022/09/09 04:33:39;;;;;;;4.55;1.30;;;;;;;;;;5033150;28;20033;-45
2022/09/09 04:36:05;;;;;;;7.53;1.52;;;;;;;;;;5035474;28;20056;-44
2022/09/09 04:38:30;;;;;;;1.95;1.27;;;;;;;;;;5034909;28;20045;-44
2022/09/09 04:40:56;;;;;;;9.50;1.75;;;;;;;;;;5029579;28;20068;-53
2022/09/09 04:43:23;;;;;;;3.72;1.50;;;;;;;;;;5031110;28;20033;-44
2022/09/09 04:45:54;;;;;;;10.48;1.60;;;;;;;;;;5035653;28;20045;-44
2022/09/09 04:48:20;;;;;;;4.35;1.33;;;;;;;;;;5033555;28;20033;-44
2022/09/09 04:50:56;;;;;;;5.55;2.55;;;;;;;;;;5033714;28;20540;-43
2022/09/09 04:53:22;;;;;;;1.38;1.27;;;;;;;;;;5031192;28;20045;-45
2022/09/09 04:55:49;;;;;;;2.25;1.30;;;;;;;;;;5029431;28;20086;-44
2022/09/09 04:58:14;;;;;;;3.67;1.27;;;;;;;;;;5031734;28;20037;-42
2022/09/09 05:00:41;;;;;;;4.35;1.40;;;;;;;;;;5035269;28;20044;-44
2022/09/09 05:03:08;;;;;;;5.18;1.60;;;;;;;;;;5033752;28;20037;-45
2022/09/09 05:05:34;;;;;;;4.30;1.73;;;;;;;;;;5031214;28;20051;-44
2022/09/09 05:08:05;;;;;;;5.93;1.20;;;;;;;;;;5033317;28;20040;-44
2022/09/09 05:10:32;;;;;;;1.25;1.10;;;;;;;;;;5029956;28;20581;-46
2022/09/09 05:12:58;;;;;;;2.05;1.23;;;;;;;;;;5033963;28;20122;-44
2022/09/09 05:15:23;;;;;;;2.30;1.15;;;;;;;;;;5032416;28;20533;-46
2022/09/09 05:17:49;;;;;;;2.78;1.30;;;;;;;;;;5033799;28;20041;-47
2022/09/09 05:20:15;;;;;;;4.57;1.20;;;;;;;;;;5032423;28;20120;-45
2022/09/09 05:22:40;;;;;;;5.40;1.70;;;;;;;;;;5033257;28;20516;-44
2022/09/09 05:25:07;;;;;;;2.20;1.50;;;;;;;;;;5029962;28;20506;-45
2022/09/09 05:27:37;;;;;;;12.27;1.40;;;;;;;;;;5030395;28;20448;-44
2022/09/09 05:30:04;;;;;;;4.22;1.30;;;;;;;;;;5031313;28;20143;-44
2022/09/09 05:32:33;;;;;;;2.85;1.45;;;;;;;;;;5032816;28;20045;-42
2022/09/09 05:34:59;;;;;;;8.70;1.52;;;;;;;;;;5029714;28;20526;-41
2022/09/09 05:37:25;;;;;;;3.78;1.48;;;;;;;;;;5030718;28;20076;-45
2022/09/09 05:39:50;;;;;;;1.70;1.55;;;;;;;;;;5029207;28;21369;-45
2022/09/09 05:42:16;;;;;;;6.20;1.77;;;;;;;;;;5028538;28;20033;-45
2022/09/09 05:44:42;;;;;;;1.73;1.40;;;;;;;;;;5029619;28;20143;-43
2022/09/09 05:47:09;;;;;;;2.83;1.73;;;;;;;;;;5033254;28;20540;-45
2022/09/09 05:49:34;;;;;;;5.80;1.52;;;;;;;;;;5030134;28;20049;-44
2022/09/09 05:52:00;;;;;;;6.60;1.45;;;;;;;;;;5030648;28;20033;-49
2022/09/09 05:54:26;;;;;;;9.80;2.60;;;;;;;;;;5029945;28;20039;-46
2022/09/09 05:56:53;;;;;;;9.57;1.75;;;;;;;;;;5029892;28;20088;-45
2022/09/09 05:59:19;;;;;;;6.53;1.52;;;;;;;;;;5028352;28;20573;-46
2022/09/09 06:01:45;;;;;;;16.92;1.92;;;;;;;;;;5028472;28;20128;-44
2022/09/09 06:04:10;;;;;;;5.75;1.77;;;;;;;;;;5028477;28;20044;-44
2022/09/09 06:06:39;;;;;;;9.35;1.95;;;;;;;;;;5028371;28;20042;-44
2022/09/09 06:09:13;;;;;;;5.47;1.70;;;;;;;;;;5032986;28;20048;-40
2022/09/09 06:11:39;;;;;;;4.57;1.50;;;;;;;;;;5027640;28;20052;-49
2022/09/09 06:14:05;;;;;;;7.68;1.67;;;;;;;;;;5026983;28;20052;-41
2022/09/09 06:16:32;;;;;;;3.25;1.40;;;;;;;;;;5032248;28;20625;-45
2022/09/09 06:18:58;;;;;;;4.70;1.83;;;;;;;;;;5029053;28;20561;-45
2022/09/09 06:21:30;;;;;;;6.68;1.80;;;;;;;;;;5038012;28;20072;-44
2022/09/09 06:23:56;;;;;;;3.97;1.73;;;;;;;;;;5035330;28;20589;-45
2022/09/09 06:26:33;;;;;;;8.00;1.38;;;;;;;;;;5035994;28;20121;-44
2022/09/09 06:29:00;;;;;;;5.55;1.40;;;;;;;;;;5034374;28;20056;-46
2022/09/09 06:31:29;;;;;;;10.75;1.50;;;;;;;;;;5031869;28;20045;-44
2022/09/09 06:33:57;;;;;;;5.32;2.00;;;;;;;;;;5032049;28;20044;-42
2022/09/09 06:36:25;;;;;;;11.05;1.40;;;;;;;;;;5026509;28;20060;-44
2022/09/09 06:38:51;;;;;;;6.43;1.98;;;;;;;;;;5032642;28;20556;-44
2022/09/09 06:41:18;;;;;;;8.55;1.70;;;;;;;;;;5033922;28;20045;-46
2022/09/09 06:43:45;;;;;;;15.20;1.83;;;;;;;;;;5034347;28;20036;-45
2022/09/09 06:46:16;;;;;;;9.38;1.63;;;;;;;;;;5029882;28;20033;-42
2022/09/09 06:48:44;;;;;;;15.80;2.40;;;;;;;;;;5030676;28;20090;-45
2022/09/09 06:51:15;;;;;;;12.40;2.15;;;;;;;;;;5031953;28;20401;-47
2022/09/09 06:53:43;;;;;;;9.15;1.88;;;;;;;;;;5029497;28;20041;-46
2022/09/09 06:56:11;;;;;;;6.50;1.55;;;;;;;;;;5014512;28;20037;-45
2022/09/09 06:58:46;;;;;;;7.60;1.63;;;;;;;;;;5031931;28;20462;-46
2022/09/09 07:01:14;;;;;;;8.85;1.60;;;;;;;;;;5033596;28;20060;-44
2022/09/09 07:03:42;;;;;;;5.65;1.33;;;;;;;;;;5030877;28;20052;-45
2022/09/09 07:06:14;;;;;;;13.10;2.65;;;;;;;;;;5033661;28;20052;-45
2022/09/09 07:08:40;;;;;;;8.05;1.67;;;;;;;;;;5031061;28;20041;-44
2022/09/09 07:11:08;;;;;;;4.20;1.65;;;;;;;;;;5031900;28;20504;-42
2022/09/09 07:13:34;;;;;;;3.72;1.38;;;;;;;;;;5031023;28;20120;-44
2022/09/09 07:16:11;;;;;;;3.30;1.42;;;;;;;;;;5029153;28;20045;-47
2022/09/09 07:18:36;;;;;;;1.80;1.25;;;;;;;;;;5031479;28;21201;-45
2022/09/09 07:21:03;;;;;;;4.78;1.75;;;;;;;;;;5032804;28;20041;-44
2022/09/09 07:23:30;;;;;;;2.65;1.30;;;;;;;;;;5030621;28;20056;-44
2022/09/09 07:25:57;;;;;;;6.80;1.25;;;;;;;;;;5029748;28;20148;-45
2022/09/09 07:28:23;;;;;;;4.97;1.42;;;;;;;;;;5030918;28;20495;-45
2022/09/09 07:30:56;;;;;;;4.82;1.35;;;;;;;;;;5024538;28;20045;-46
2022/09/09 07:33:22;;;;;;;4.00;1.40;;;;;;;;;;5031120;28;20041;-44
2022/09/09 07:35:49;;;;;;;3.05;1.42;;;;;;;;;;5030423;28;20654;-45
2022/09/09 07:38:15;;;;;;;3.00;1.58;;;;;;;;;;5030280;28;20040;-45
2022/09/09 07:40:40;;;;;;;7.35;1.55;;;;;;;;;;5030271;28;21655;-46
2022/09/09 07:43:06;;;;;;;3.95;1.25;;;;;;;;;;5025550;28;20083;-42
2022/09/09 07:45:34;;;;;;;6.53;1.30;;;;;;;;;;5032379;28;20048;-42
2022/09/09 07:48:00;;;;;;;2.85;1.38;;;;;;;;;;5028859;28;20533;-45
2022/09/09 07:50:26;;;;;;;2.33;0.80;;;;;;;;;;5033853;28;20080;-39
2022/09/09 07:52:53;;;;;;;1.95;1.20;;;;;;;;;;5030167;28;20045;-45
2022/09/09 07:55:25;;;;;;;1.20;1.08;;;;;;;;;;5028265;28;20060;-49
2022/09/09 07:57:51;;;;;;;2.75;0.88;;;;;;;;;;5029387;28;20037;-44
2022/09/09 08:00:18;;;;;;;3.63;1.10;;;;;;;;;;5027461;28;20048;-45
2022/09/09 08:02:44;;;;;;;3.10;0.90;;;;;;;;;;5030684;28;20145;-44
2022/09/09 08:05:09;;;;;;;0.98;0.90;;;;;;;;;;5025996;28;20117;-45
2022/09/09 08:07:35;;;;;;;4.13;0.82;;;;;;;;;;5030203;28;20091;-44
2022/09/09 08:10:02;;;;;;;1.55;0.80;;;;;;;;;;5028864;28;20098;-39
2022/09/09 08:12:28;;;;;;;2.58;0.90;;;;;;;;;;5028868;28;20045;-45
2022/09/09 08:14:53;;;;;;;0.77;0.63;;;;;;;;;;5028183;28;20048;-44
2022/09/09 08:17:19;;;;;;;1.13;0.57;;;;;;;;;;5029945;28;20041;-49
2022/09/09 08:19:45;;;;;;;8.45;0.90;;;;;;;;;;5028090;28;20041;-43
2022/09/09 08:22:11;;;;;;;1.73;1.00;;;;;;;;;;5030884;28;20129;-45
2022/09/09 08:24:36;;;;;;;2.30;0.88;;;;;;;;;;5029093;28;20053;-40
2022/09/09 08:27:02;;;;;;;2.38;1.20;;;;;;;;;;5029529;28;20543;-44
2022/09/09 08:29:28;;;;;;;1.92;1.20;;;;;;;;;;5025337;28;20112;-49
2022/09/09 08:31:57;;;;;;;10.30;1.30;;;;;;;;;;5030275;28;20087;-46
2022/09/09 08:34:26;;;;;;;3.90;1.63;;;;;;;;;;5030366;28;20394;-51
2022/09/09 08:36:53;;;;;;;4.28;0.93;;;;;;;;;;5032443;28;20052;-44
2022/09/09 08:39:20;;;;;;;3.83;1.30;;;;;;;;;;5028798;28;20087;-45
2022/09/09 08:42:05;;;;;;;2.92;1.20;;;;;;;;;;5024105;28;20056;-44
2022/09/09 08:45:05;;;;;;;1.13;0.90;;;;;;;;;;5028120;28;20048;-47
2022/09/09 08:48:08;;;;;;;2.33;1.15;;;;;;;;;;5028415;28;20045;-48
2022/09/09 08:50:38;;;;;;;2.60;1.10;;;;;;;;;;5028870;28;20074;-44
2022/09/09 08:53:22;;;;;;;1.45;0.90;;;;;;;;;;5031795;28;20235;-44
2022/09/09 08:55:51;;;;;;;3.28;0.90;;;;;;;;;;5022660;28;20041;-45
2022/09/09 08:58:19;;;;;;;1.73;1.00;;;;;;;;;;5029579;28;20052;-44
2022/09/09 09:01:22;;;;;;;3.10;1.15;;;;;;;;;;5028418;28;20051;-45
2022/09/09 09:03:59;;;;;;;;;;;;;;;;;;5031453;28;20045;-44
2022/09/09 09:06:35;;;;;;;2.17;1.13;;;;;;;;;;5032650;28;19920;-43
2022/09/09 09:09:21;;;;;;;2.20;1.00;;;;;;;;;;5029342;28;20044;-44
2022/09/09 09:11:53;;;;;;;0.93;0.88;;;;;;;;;;5028772;28;20091;-44
2022/09/09 09:14:24;;;;;;;1.45;0.60;;;;;;;;;;5030706;28;20087;-45
2022/09/09 09:16:53;;;;;;;1.50;0.70;;;;;;;;;;5032494;28;20813;-46
2022/09/09 09:19:22;;;;;;;1.98;0.90;;;;;;;;;;5029679;28;20041;-44
2022/09/09 09:22:10;;;;;;;3.83;1.00;;;;;;;;;;5029070;28;20505;-47
2022/09/09 09:24:59;;;;;;;0.50;0.45;;;;;;;;;;5026379;28;20064;-45
2022/09/09 09:27:47;;;;;;;1.60;0.80;;;;;;;;;;5030219;28;20793;-44
2022/09/09 09:30:22;;;;;;;1.85;0.65;;;;;;;;;;5025330;28;20475;-48
2022/09/09 09:33:12;;;;;;;3.20;0.70;;;;;;;;;;5029749;28;20056;-43
2022/09/09 09:35:37;;;;;;;1.75;0.60;;;;;;;;;;5028758;28;20049;-41
2022/09/09 09:38:17;;;;;;;1.58;0.70;;;;;;;;;;5026612;28;20048;-43
2022/09/09 09:40:57;;;;;;;0.90;0.52;;;;;;;;;;5026610;28;20061;-42
2022/09/09 09:43:29;;;;;;;5.97;0.88;;;;;;;;;;5028550;28;20036;-45
2022/09/09 09:45:57;;;;;;;1.75;0.90;;;;;;;;;;5028659;28;20171;-42
2022/09/09 09:48:24;;;;;;;1.85;0.70;;;;;;;;;;5026827;28;20048;-40
2022/09/09 09:51:10;;;;;;;2.83;0.88;;;;;;;;;;5028051;28;20041;-45
2022/09/09 09:53:38;;;;;;;3.95;0.70;;;;;;;;;;5035984;28;20041;-44
2022/09/09 09:56:07;;;;;;;2.83;0.80;;;;;;;;;;5033811;28;20049;-45
2022/09/09 09:58:45;;;;;;;1.45;0.73;;;;;;;;;;5034216;28;20153;-44
2022/09/09 10:01:27;;;;;;;2.03;0.77;;;;;;;;;;5032868;28;20037;-48
2022/09/09 10:04:18;;;;;;;2.00;0.63;;;;;;;;;;5036503;28;20063;-41
2022/09/09 10:06:44;;;;;;;3.40;0.50;;;;;;;;;;5034363;28;20041;-44
2022/09/09 10:09:28;;;;;;;0.73;0.73;;;;;;;;;;5037702;28;20055;-44
2022/09/09 10:12:24;;;;;;;1.00;0.80;;;;;;;;;;5037590;28;20040;-45
2022/09/09 10:15:13;;;;;;;6.95;0.60;;;;;;;;;;5034866;28;20067;-43
2022/09/09 10:17:51;;;;;;;2.70;0.80;;;;;;;;;;5038105;28;20033;-47
2022/09/09 10:20:44;;;;;;;1.45;0.80;;;;;;;;;;5037392;28;20045;-49
2022/09/09 10:23:28;;;;;;;1.13;0.57;;;;;;;;;;5034824;28;20045;-45
2022/09/09 10:26:16;;;;;;;2.92;0.57;;;;;;;;;;5033264;28;20041;-41
2022/09/09 10:29:05;;;;;;;0.85;0.60;;;;;;;;;;5036342;28;20401;-46
2022/09/09 10:31:45;;;;;;;0.90;0.60;;;;;;;;;;5037437;28;20052;-47
2022/09/09 10:34:51;;;;;;;1.63;0.68;;;;;;;;;;5037984;28;20037;-47
2022/09/09 10:37:54;;;;;;;1.85;0.80;;;;;;;;;;5030544;28;20040;-46
2022/09/09 10:40:38;;;;;;;1.17;0.90;;;;;;;;;;5030979;28;20396;-43
2022/09/09 10:43:28;;;;;;;0.50;0.50;;;;;;;;;;5031488;28;20099;-41
2022/09/09 10:46:08;;;;;;;0.30;0.30;;;;;;;;;;5036766;28;20131;-41
2022/09/09 10:49:05;;;;;;;4.28;0.55;;;;;;;;;;5028383;28;20049;-46
2022/09/09 10:51:49;;;;;;;0.85;0.52;;;;;;;;;;5031310;28;20036;-46
2022/09/09 10:54:14;;;;;;;0.57;0.57;;;;;;;;;;5029490;28;20065;-45
2022/09/09 10:56:44;;;;;;;1.13;0.80;;;;;;;;;;5029486;28;20127;-44
2022/09/09 10:59:20;;;;;;;0.60;0.55;;;;;;;;;;5028096;28;20077;-44
2022/09/09 11:01:52;;;;;;;2.67;0.65;;;;;;;;;;5034602;28;20044;-44
2022/09/09 11:04:23;;;;;;;0.73;0.60;;;;;;;;;;5026399;28;20049;-49
2022/09/09 11:06:54;;;;;;;1.67;0.90;;;;;;;;;;5034135;28;20057;-39
2022/09/09 11:09:28;;;;;;;1.90;0.70;;;;;;;;;;5028962;28;20441;-41
2022/09/09 11:11:55;;;;;;;2.45;0.60;;;;;;;;;;5032065;28;20052;-45
2022/09/09 11:14:37;;;;;;;3.72;0.68;;;;;;;;;;5029693;28;20843;-44
2022/09/09 11:17:26;;;;;;;1.73;0.68;;;;;;;;;;5032199;28;20103;-47
2022/09/09 11:19:52;;;;;;;1.98;0.80;;;;;;;;;;5031468;28;20060;-44
2022/09/09 11:22:27;;;;;;;1.55;0.70;;;;;;;;;;5035002;28;20406;-44
2022/09/09 11:24:59;;;;;;;1.58;0.80;;;;;;;;;;5033681;28;20048;-44
2022/09/09 11:27:31;;;;;;;1.50;0.80;;;;;;;;;;5013527;28;20037;-45
2022/09/09 11:30:18;;;;;;;2.53;0.90;;;;;;;;;;5035891;28;20037;-43
2022/09/09 11:32:59;;;;;;;0.98;0.63;;;;;;;;;;5032142;28;20057;-38
2022/09/09 11:35:51;;;;;;;3.05;0.75;;;;;;;;;;5030204;28;20053;-41
2022/09/09 11:38:19;;;;;;;0.70;0.70;;;;;;;;;;5032498;28;20067;-44
2022/09/09 11:40:46;;;;;;;2.60;0.88;;;;;;;;;;5032988;28;20501;-43
2022/09/09 11:43:32;;;;;;;1.45;1.02;;;;;;;;;;5028674;28;20040;-45
2022/09/09 11:46:02;;;;;;;0.75;0.70;;;;;;;;;;5027047;28;20045;-43
2022/09/09 11:48:45;;;;;;;1.38;0.63;;;;;;;;;;5031125;28;20052;-46
2022/09/09 11:51:25;;;;;;;1.58;0.90;;;;;;;;;;5031052;28;20049;-45
2022/09/09 11:54:01;;;;;;;0.77;0.75;;;;;;;;;;5029227;28;20131;-45
2022/09/09 11:56:32;;;;;;;2.40;0.95;;;;;;;;;;5025738;28;20045;-44
2022/09/09 11:59:03;;;;;;;3.08;0.88;;;;;;;;;;5031093;28;20060;-44
2022/09/09 12:01:43;;;;;;;4.80;0.70;;;;;;;;;;5031179;28;20355;-43
2022/09/09 12:04:09;;;;;;;1.63;0.90;;;;;;;;;;5032411;28;20095;-42
2022/09/09 12:06:49;;;;;;;1.05;0.70;;;;;;;;;;5029275;28;20513;-45
2022/09/09 12:09:39;;;;;;;0.60;0.57;;;;;;;;;;5030288;28;20124;-45
2022/09/09 12:12:23;;;;;;;0.90;0.60;;;;;;;;;;5026676;28;20132;-41
2022/09/09 12:15:07;;;;;;;3.00;0.63;;;;;;;;;;5030744;28;20044;-45
2022/09/09 12:18:14;;;;;;;2.25;0.68;;;;;;;;;;5030263;28;20060;-43
2022/09/09 12:21:01;;;;;;;1.17;0.80;;;;;;;;;;4929538;28;20147;-44
2022/09/09 12:23:36;;;;;;;1.65;0.70;;;;;;;;;;4928201;28;20178;-44
2022/09/09 12:26:19;;;;;;;0.85;0.50;;;;;;;;;;4931663;28;20043;-43
2022/09/09 12:29:19;;;;;;;2.83;1.00;;;;;;;;;;4927574;28;20143;-42
2022/09/09 12:31:50;;;;;;;0.65;0.60;;;;;;;;;;4922836;28;20086;-39
2022/09/09 12:34:31;;;;;;;;;;;;;;;;;;4928977;28;20088;-44
2022/09/09 12:37:04;;;;;;;2.97;0.70;;;;;;;;;;4927613;28;19996;-46
2022/09/09 12:39:45;;;;;;;0.90;0.77;;;;;;;;;;4925929;28;20720;-43
2022/09/09 12:42:21;;;;;;;1.65;0.77;;;;;;;;;;4930806;28;20412;-45
2022/09/09 12:44:58;;;;;;;4.82;1.10;;;;;;;;;;4929342;28;20454;-44
2022/09/09 12:47:42;;;;;;;1.52;0.82;;;;;;;;;;4930613;28;20051;-47
2022/09/09 12:50:26;;;;;;;0.80;0.80;;;;;;;;;;4930839;28;20106;-45
2022/09/09 12:52:55;;;;;;;2.42;0.80;;;;;;;;;;5026116;28;20581;-43
2022/09/09 12:55:49;;;;;;;1.65;0.70;;;;;;;;;;5028490;28;20078;-47
2022/09/09 12:58:17;;;;;;;1.00;0.93;;;;;;;;;;5029155;28;20045;-43
2022/09/09 13:00:52;;;;;;;2.42;0.73;;;;;;;;;;5030986;28;20052;-43
2022/09/09 13:03:20;;;;;;;4.60;0.82;;;;;;;;;;5028617;28;20141;-44
2022/09/09 13:05:46;;;;;;;5.35;1.00;;;;;;;;;;5028475;28;20040;-46
2022/09/09 13:08:14;;;;;;;1.65;0.65;;;;;;;;;;5029042;28;20382;-51
2022/09/09 13:10:52;;;;;;;0.82;0.82;;;;;;;;;;5028736;28;20139;-48
2022/09/09 13:13:24;;;;;;;4.57;1.23;;;;;;;;;;5028277;28;20041;-46
2022/09/09 13:15:54;;;;;;;1.10;1.00;;;;;;;;;;5029769;28;20041;-43
2022/09/09 13:18:26;;;;;;;2.22;0.90;;;;;;;;;;5028813;28;21694;-44
2022/09/09 13:20:53;;;;;;;0.90;0.75;;;;;;;;;;5033087;28;20102;-46
2022/09/09 13:23:20;;;;;;;2.60;0.80;;;;;;;;;;5032453;28;20041;-43
2022/09/09 13:25:58;;;;;;;2.22;0.70;;;;;;;;;;5031342;28;20098;-44
2022/09/09 13:28:27;;;;;;;3.05;1.05;;;;;;;;;;5035386;28;20037;-46
2022/09/09 13:30:59;;;;;;;1.27;0.80;;;;;;;;;;5037013;28;20052;-42
2022/09/09 13:33:31;;;;;;;1.05;0.60;;;;;;;;;;5038575;28;20052;-44
2022/09/09 13:36:06;;;;;;;2.72;0.73;;;;;;;;;;5037554;28;20577;-43
2022/09/09 13:38:54;;;;;;;1.70;1.02;;;;;;;;;;5037077;28;20049;-42
2022/09/09 13:41:35;;;;;;;0.93;0.90;;;;;;;;;;5032609;28;20041;-44
2022/09/09 13:44:02;;;;;;;1.08;0.80;;;;;;;;;;5030785;28;20042;-43
2022/09/09 13:46:40;;;;;;;2.42;1.13;;;;;;;;;;5031416;28;20447;-45
2022/09/09 13:49:11;;;;;;;1.17;0.80;;;;;;;;;;5034043;28;20056;-43
2022/09/09 13:51:38;;;;;;;1.08;0.85;;;;;;;;;;5038201;28;20036;-43
2022/09/09 13:54:09;;;;;;;1.50;0.90;;;;;;;;;;5035383;28;20044;-44
2022/09/09 13:56:36;;;;;;;2.45;0.75;;;;;;;;;;5037298;28;20179;-44
2022/09/09 13:59:04;;;;;;;2.38;1.27;;;;;;;;;;5037643;28;20203;-44
2022/09/09 14:01:31;;;;;;;1.88;0.93;;;;;;;;;;5036170;28;20041;-45
2022/09/09 14:03:57;;;;;;;1.17;1.00;;;;;;;;;;5035497;28;20524;-44
2022/09/09 14:06:23;;;;;;;3.00;1.00;;;;;;;;;;5037081;28;20041;-44
2022/09/09 14:08:51;;;;;;;1.40;0.80;;;;;;;;;;5032376;28;20451;-46
2022/09/09 14:11:18;;;;;;;4.43;1.30;;;;;;;;;;5036218;28;20494;-41
2022/09/09 14:13:44;;;;;;;3.70;1.00;;;;;;;;;;5037309;28;20056;-44
2022/09/09 14:16:09;;;;;;;1.02;0.90;;;;;;;;;;5034413;28;20037;-44
2022/09/09 14:18:35;;;;;;;3.35;1.08;;;;;;;;;;5033740;28;20489;-44
2022/09/09 14:21:02;;;;;;;3.13;1.30;;;;;;;;;;5034941;28;20095;-39
2022/09/09 14:23:29;;;;;;;1.15;0.70;;;;;;;;;;5034514;28;20041;-46
2022/09/09 14:25:54;;;;;;;0.80;0.70;;;;;;;;;;5031649;28;20048;-44
2022/09/09 14:28:20;;;;;;;1.58;1.00;;;;;;;;;;5037550;28;20045;-44
2022/09/09 14:30:46;;;;;;;3.35;1.05;;;;;;;;;;5037406;28;20045;-44
2022/09/09 14:33:14;;;;;;;1.83;0.80;;;;;;;;;;5029771;28;20055;-42
2022/09/09 14:35:40;;;;;;;0.80;0.80;;;;;;;;;;5033801;28;20033;-48
2022/09/09 14:38:07;;;;;;;1.40;1.20;;;;;;;;;;5032993;28;20091;-39
2022/09/09 14:40:35;;;;;;;3.15;0.90;;;;;;;;;;5031535;28;20048;-44
2022/09/09 14:43:01;;;;;;;5.40;1.17;;;;;;;;;;5031908;28;20044;-45
2022/09/09 14:45:28;;;;;;;1.10;0.85;;;;;;;;;;5031704;28;20412;-41
2022/09/09 14:47:54;;;;;;;1.23;1.08;;;;;;;;;;5033238;28;20045;-47
2022/09/09 14:50:21;;;;;;;2.55;0.80;;;;;;;;;;5030881;28;21021;-45
2022/09/09 14:52:46;;;;;;;1.38;0.90;;;;;;;;;;5030874;28;20075;-44
2022/09/09 14:55:13;;;;;;;1.13;0.90;;;;;;;;;;5032945;28;20128;-48
2022/09/09 14:57:40;;;;;;;1.48;0.82;;;;;;;;;;5032389;28;20106;-48
2022/09/09 15:00:07;;;;;;;8.80;1.02;;;;;;;;;;5029036;28;20060;-44
2022/09/09 15:02:33;;;;;;;3.78;0.80;;;;;;;;;;5034131;28;20045;-46
2022/09/09 15:04:59;;;;;;;0.98;0.80;;;;;;;;;;5033265;28;21245;-44
2022/09/09 15:07:27;;;;;;;0.73;0.70;;;;;;;;;;5031239;28;20052;-46
2022/09/09 15:09:52;;;;;;;1.08;0.90;;;;;;;;;;5031428;28;20481;-45
2022/09/09 15:12:19;;;;;;;1.05;0.95;;;;;;;;;;5032376;28;20153;-45
2022/09/09 15:14:45;;;;;;;3.13;0.70;;;;;;;;;;5032248;28;20151;-44
2022/09/09 15:17:11;;;;;;;1.98;1.08;;;;;;;;;;5030017;28;20431;-47